sensor_id;sensor_type;location;lat;lon;timestamp;pressure;altitude;pressure_sealevel;temperature;humidity
7836;BME280;3963;42.658;23.298;2023-05-01T00:01:28;59567.13;;;11.27;100.00
7836;BME280;3963;42.658;23.298;2023-05-01T00:03:54;59576.78;;;11.21;100.00
7836;BME280;3963;42.658;23.298;2023-05-01T00:06:21;59575.19;;;11.20;100.00
7836;BME280;3963;42.658;23.298;2023-05-01T00:08:50;59561.78;;;11.22;100.00
7836;BME280;3963;42.658;23.298;2023-05-01T00:11:17;59531.44;;;10.98;100.00
7836;BME280;3963;42.658;23.298;2023-05-01T00:13:44;59542.75;;;11.11;100.00
7836;BME280;3963;42.658;23.298;2023-05-01T00:16:11;59550.00;;;11.10;100.00
7836;BME280;3963;42.658;23.298;2023-05-01T00:18:38;59528.50;;;10.88;100.00
7836;BME280;3963;42.658;23.298;2023-05-01T00:21:05;59538.75;;;11.00;100.00
7836;BME280;3963;42.658;23.298;2023-05-01T00:23:31;59527.84;;;10.99;100.00
7836;BME280;3963;42.658;23.298;2023-05-01T00:26:00;59518.41;;;10.95;100.00
7836;BME280;3963;42.658;23.298;2023-05-01T00:28:27;59483.31;;;10.84;100.00
7836;BME280;3963;42.658;23.298;2023-05-01T00:30:53;59500.47;;;10.86;100.00
7836;BME280;3963;42.658;23.298;2023-05-01T00:33:20;59501.34;;;10.82;100.00
7836;BME280;3963;42.658;23.298;2023-05-01T00:35:47;59497.50;;;10.76;100.00
7836;BME280;3963;42.658;23.298;2023-05-01T00:38:17;59505.91;;;10.79;100.00
7836;BME280;3963;42.658;23.298;2023-05-01T00:40:44;59491.16;;;10.72;100.00
7836;BME280;3963;42.658;23.298;2023-05-01T00:43:13;59468.63;;;10.63;100.00
7836;BME280;3963;42.658;23.298;2023-05-01T00:45:42;59504.41;;;10.80;100.00
7836;BME280;3963;42.658;23.298;2023-05-01T00:48:10;59472.31;;;10.81;100.00
7836;BME280;3963;42.658;23.298;2023-05-01T00:50:37;59467.50;;;10.77;100.00
7836;BME280;3963;42.658;23.298;2023-05-01T00:53:04;59483.41;;;10.87;100.00
7836;BME280;3963;42.658;23.298;2023-05-01T00:55:31;59486.28;;;10.65;100.00
7836;BME280;3963;42.658;23.298;2023-05-01T00:58:00;59468.88;;;10.56;100.00
7836;BME280;3963;42.658;23.298;2023-05-01T01:00:28;59443.09;;;10.44;100.00
7836;BME280;3963;42.658;23.298;2023-05-01T01:02:55;59407.78;;;10.25;100.00
7836;BME280;3963;42.658;23.298;2023-05-01T01:05:24;59435.53;;;10.20;100.00
7836;BME280;3963;42.658;23.298;2023-05-01T01:07:59;59429.47;;;10.24;100.00
7836;BME280;3963;42.658;23.298;2023-05-01T01:10:36;59431.38;;;10.18;100.00
7836;BME280;3963;42.658;23.298;2023-05-01T01:13:13;59373.19;;;10.12;100.00
7836;BME280;3963;42.658;23.298;2023-05-01T01:15:56;59388.91;;;10.02;100.00
7836;BME280;3963;42.658;23.298;2023-05-01T01:18:29;59391.84;;;9.98;100.00
7836;BME280;3963;42.658;23.298;2023-05-01T01:21:05;59382.56;;;9.99;100.00
7836;BME280;3963;42.658;23.298;2023-05-01T01:24:11;59392.28;;;9.96;100.00
7836;BME280;3963;42.658;23.298;2023-05-01T01:27:05;59355.84;;;9.74;100.00
7836;BME280;3963;42.658;23.298;2023-05-01T01:29:45;59375.69;;;9.95;100.00
7836;BME280;3963;42.658;23.298;2023-05-01T01:32:47;59390.50;;;9.89;100.00
7836;BME280;3963;42.658;23.298;2023-05-01T01:35:25;59334.88;;;9.81;100.00
7836;BME280;3963;42.658;23.298;2023-05-01T01:37:56;59390.16;;;9.94;100.00
7836;BME280;3963;42.658;23.298;2023-05-01T01:40:32;59380.09;;;9.87;100.00
7836;BME280;3963;42.658;23.298;2023-05-01T01:43:03;59378.22;;;9.78;100.00
7836;BME280;3963;42.658;23.298;2023-05-01T01:45:35;59354.69;;;9.70;100.00
7836;BME280;3963;42.658;23.298;2023-05-01T01:48:05;59350.41;;;9.66;100.00
7836;BME280;3963;42.658;23.298;2023-05-01T01:50:37;59326.44;;;9.61;100.00
7836;BME280;3963;42.658;23.298;2023-05-01T01:53:05;59379.56;;;9.57;100.00
7836;BME280;3963;42.658;23.298;2023-05-01T01:55:35;59289.41;;;9.35;100.00
7836;BME280;3963;42.658;23.298;2023-05-01T01:58:04;59286.50;;;9.25;100.00
7836;BME280;3963;42.658;23.298;2023-05-01T02:00:32;59285.41;;;9.24;100.00
7836;BME280;3963;42.658;23.298;2023-05-01T02:03:01;59271.81;;;9.19;100.00
7836;BME280;3963;42.658;23.298;2023-05-01T02:05:30;59301.19;;;9.17;100.00
7836;BME280;3963;42.658;23.298;2023-05-01T02:08:01;59263.97;;;9.16;100.00
7836;BME280;3963;42.658;23.298;2023-05-01T02:10:32;59262.72;;;9.10;100.00
7836;BME280;3963;42.658;23.298;2023-05-01T02:13:00;59264.06;;;9.04;100.00
7836;BME280;3963;42.658;23.298;2023-05-01T02:15:27;59266.56;;;9.02;100.00
7836;BME280;3963;42.658;23.298;2023-05-01T02:17:55;59278.31;;;8.98;100.00
7836;BME280;3963;42.658;23.298;2023-05-01T02:20:22;59266.94;;;8.97;100.00
7836;BME280;3963;42.658;23.298;2023-05-01T02:22:50;59267.09;;;8.87;100.00
7836;BME280;3963;42.658;23.298;2023-05-01T02:25:19;59207.69;;;8.70;100.00
7836;BME280;3963;42.658;23.298;2023-05-01T02:27:49;59220.56;;;8.70;100.00
7836;BME280;3963;42.658;23.298;2023-05-01T02:30:18;59217.28;;;8.65;100.00
7836;BME280;3963;42.658;23.298;2023-05-01T02:32:45;59203.78;;;8.62;100.00
7836;BME280;3963;42.658;23.298;2023-05-01T02:35:11;59217.81;;;8.65;100.00
7836;BME280;3963;42.658;23.298;2023-05-01T02:37:38;59225.03;;;8.65;100.00
7836;BME280;3963;42.658;23.298;2023-05-01T02:40:06;59207.44;;;8.63;100.00
7836;BME280;3963;42.658;23.298;2023-05-01T02:42:36;59173.38;;;8.48;100.00
7836;BME280;3963;42.658;23.298;2023-05-01T02:45:06;59208.59;;;8.37;100.00
7836;BME280;3963;42.658;23.298;2023-05-01T02:47:36;59183.25;;;8.35;100.00
7836;BME280;3963;42.658;23.298;2023-05-01T02:50:05;59180.66;;;8.35;100.00
7836;BME280;3963;42.658;23.298;2023-05-01T02:52:33;59165.19;;;8.20;100.00
7836;BME280;3963;42.658;23.298;2023-05-01T02:55:02;59183.16;;;8.18;100.00
7836;BME280;3963;42.658;23.298;2023-05-01T02:57:31;59143.50;;;8.19;100.00
7836;BME280;3963;42.658;23.298;2023-05-01T03:00:00;59128.47;;;8.17;100.00
7836;BME280;3963;42.658;23.298;2023-05-01T03:02:27;59167.78;;;8.20;100.00
7836;BME280;3963;42.658;23.298;2023-05-01T03:04:54;59151.22;;;8.19;100.00
7836;BME280;3963;42.658;23.298;2023-05-01T03:07:20;59161.00;;;8.19;100.00
7836;BME280;3963;42.658;23.298;2023-05-01T03:09:47;59179.13;;;8.21;100.00
7836;BME280;3963;42.658;23.298;2023-05-01T03:12:14;59194.72;;;8.24;100.00
7836;BME280;3963;42.658;23.298;2023-05-01T03:14:41;59169.09;;;8.14;100.00
7836;BME280;3963;42.658;23.298;2023-05-01T03:17:09;59150.44;;;8.11;100.00
7836;BME280;3963;42.658;23.298;2023-05-01T03:19:37;59150.53;;;8.14;100.00
7836;BME280;3963;42.658;23.298;2023-05-01T03:22:06;59155.84;;;8.19;100.00
7836;BME280;3963;42.658;23.298;2023-05-01T03:24:33;59142.88;;;8.16;100.00
7836;BME280;3963;42.658;23.298;2023-05-01T03:27:00;59141.38;;;8.17;100.00
7836;BME280;3963;42.658;23.298;2023-05-01T03:29:26;59176.84;;;8.14;100.00
7836;BME280;3963;42.658;23.298;2023-05-01T03:31:53;59138.94;;;8.22;100.00
7836;BME280;3963;42.658;23.298;2023-05-01T03:34:24;59127.41;;;8.16;100.00
7836;BME280;3963;42.658;23.298;2023-05-01T03:36:51;59170.53;;;7.96;100.00
7836;BME280;3963;42.658;23.298;2023-05-01T03:39:18;59121.56;;;7.96;100.00
7836;BME280;3963;42.658;23.298;2023-05-01T03:41:45;59087.34;;;7.91;100.00
7836;BME280;3963;42.658;23.298;2023-05-01T03:44:13;59110.28;;;7.83;100.00
7836;BME280;3963;42.658;23.298;2023-05-01T03:46:40;59112.84;;;7.83;100.00
7836;BME280;3963;42.658;23.298;2023-05-01T03:49:07;59134.81;;;7.77;100.00
7836;BME280;3963;42.658;23.298;2023-05-01T03:51:35;59142.53;;;7.77;100.00
7836;BME280;3963;42.658;23.298;2023-05-01T03:54:02;59112.94;;;7.71;100.00
7836;BME280;3963;42.658;23.298;2023-05-01T03:56:29;59108.16;;;7.66;100.00
7836;BME280;3963;42.658;23.298;2023-05-01T03:59:00;59109.41;;;7.72;100.00
7836;BME280;3963;42.658;23.298;2023-05-01T04:01:27;59136.84;;;7.76;100.00
7836;BME280;3963;42.658;23.298;2023-05-01T04:03:53;59110.81;;;7.84;100.00
7836;BME280;3963;42.658;23.298;2023-05-01T04:06:20;59147.78;;;7.94;100.00
7836;BME280;3963;42.658;23.298;2023-05-01T04:08:49;59139.22;;;8.01;100.00
7836;BME280;3963;42.658;23.298;2023-05-01T04:11:16;59200.41;;;8.10;100.00
7836;BME280;3963;42.658;23.298;2023-05-01T04:13:43;59170.63;;;8.13;100.00
7836;BME280;3963;42.658;23.298;2023-05-01T04:16:10;59163.94;;;8.14;100.00
7836;BME280;3963;42.658;23.298;2023-05-01T04:18:37;59201.91;;;8.23;100.00
7836;BME280;3963;42.658;23.298;2023-05-01T04:21:04;59179.44;;;8.29;100.00
7836;BME280;3963;42.658;23.298;2023-05-01T04:23:31;59190.00;;;8.37;100.00
7836;BME280;3963;42.658;23.298;2023-05-01T04:26:00;59202.19;;;8.46;100.00
7836;BME280;3963;42.658;23.298;2023-05-01T04:28:26;59211.78;;;8.55;100.00
7836;BME280;3963;42.658;23.298;2023-05-01T04:30:55;59270.78;;;8.59;100.00
7836;BME280;3963;42.658;23.298;2023-05-01T04:33:22;59228.69;;;8.66;100.00
7836;BME280;3963;42.658;23.298;2023-05-01T04:35:49;59245.50;;;8.74;100.00
7836;BME280;3963;42.658;23.298;2023-05-01T04:38:16;59250.22;;;8.76;100.00
7836;BME280;3963;42.658;23.298;2023-05-01T04:40:42;59248.16;;;8.77;100.00
7836;BME280;3963;42.658;23.298;2023-05-01T04:43:11;59278.25;;;8.81;100.00
7836;BME280;3963;42.658;23.298;2023-05-01T04:45:38;59260.53;;;8.91;100.00
7836;BME280;3963;42.658;23.298;2023-05-01T04:48:05;59307.78;;;8.99;100.00
7836;BME280;3963;42.658;23.298;2023-05-01T04:50:32;59327.91;;;9.13;100.00
7836;BME280;3963;42.658;23.298;2023-05-01T04:52:59;59333.34;;;9.21;100.00
7836;BME280;3963;42.658;23.298;2023-05-01T04:55:26;59334.03;;;9.26;100.00
7836;BME280;3963;42.658;23.298;2023-05-01T04:57:52;59349.13;;;9.28;100.00
7836;BME280;3963;42.658;23.298;2023-05-01T05:00:23;59332.44;;;9.39;100.00
7836;BME280;3963;42.658;23.298;2023-05-01T05:02:52;59333.41;;;9.53;100.00
7836;BME280;3963;42.658;23.298;2023-05-01T05:05:19;59333.84;;;9.65;100.00
7836;BME280;3963;42.658;23.298;2023-05-01T05:07:45;59349.78;;;9.63;100.00
7836;BME280;3963;42.658;23.298;2023-05-01T05:10:12;59386.78;;;9.71;100.00
7836;BME280;3963;42.658;23.298;2023-05-01T05:12:39;59366.97;;;9.82;100.00
7836;BME280;3963;42.658;23.298;2023-05-01T05:15:07;59402.91;;;9.89;100.00
7836;BME280;3963;42.658;23.298;2023-05-01T05:17:36;59376.22;;;9.95;100.00
7836;BME280;3963;42.658;23.298;2023-05-01T05:20:03;59454.81;;;10.09;100.00
7836;BME280;3963;42.658;23.298;2023-05-01T05:22:30;59392.91;;;10.14;100.00
7836;BME280;3963;42.658;23.298;2023-05-01T05:24:56;59444.63;;;10.28;100.00
7836;BME280;3963;42.658;23.298;2023-05-01T05:27:28;59432.59;;;10.39;100.00
7836;BME280;3963;42.658;23.298;2023-05-01T05:29:55;59444.69;;;10.45;100.00
7836;BME280;3963;42.658;23.298;2023-05-01T05:32:22;59486.31;;;10.50;100.00
7836;BME280;3963;42.658;23.298;2023-05-01T05:34:50;59450.75;;;10.56;100.00
7836;BME280;3963;42.658;23.298;2023-05-01T05:37:17;59450.13;;;10.68;100.00
7836;BME280;3963;42.658;23.298;2023-05-01T05:39:44;59497.25;;;10.83;100.00
7836;BME280;3963;42.658;23.298;2023-05-01T05:42:11;59530.53;;;10.87;100.00
7836;BME280;3963;42.658;23.298;2023-05-01T05:44:37;59525.97;;;10.90;100.00
7836;BME280;3963;42.658;23.298;2023-05-01T05:47:04;59509.47;;;10.92;100.00
7836;BME280;3963;42.658;23.298;2023-05-01T05:49:31;59520.38;;;10.92;100.00
7836;BME280;3963;42.658;23.298;2023-05-01T05:51:59;59513.03;;;11.05;100.00
7836;BME280;3963;42.658;23.298;2023-05-01T05:54:26;59583.94;;;11.18;100.00
7836;BME280;3963;42.658;23.298;2023-05-01T05:56:53;59574.38;;;11.26;100.00
7836;BME280;3963;42.658;23.298;2023-05-01T05:59:20;59575.69;;;11.49;100.00
7836;BME280;3963;42.658;23.298;2023-05-01T06:01:47;59599.91;;;11.45;100.00
7836;BME280;3963;42.658;23.298;2023-05-01T06:04:13;59579.00;;;11.55;100.00
7836;BME280;3963;42.658;23.298;2023-05-01T06:06:40;59596.97;;;11.64;100.00
7836;BME280;3963;42.658;23.298;2023-05-01T06:09:09;59629.50;;;11.76;100.00
7836;BME280;3963;42.658;23.298;2023-05-01T06:11:37;59638.59;;;11.99;100.00
7836;BME280;3963;42.658;23.298;2023-05-01T06:14:03;59662.13;;;12.04;100.00
7836;BME280;3963;42.658;23.298;2023-05-01T06:16:30;59667.19;;;12.16;100.00
7836;BME280;3963;42.658;23.298;2023-05-01T06:18:58;59662.19;;;12.21;100.00
7836;BME280;3963;42.658;23.298;2023-05-01T06:21:25;59691.38;;;12.24;100.00
7836;BME280;3963;42.658;23.298;2023-05-01T06:23:52;59699.41;;;12.32;100.00
7836;BME280;3963;42.658;23.298;2023-05-01T06:26:20;59708.91;;;12.36;100.00
7836;BME280;3963;42.658;23.298;2023-05-01T06:28:47;59721.78;;;12.48;100.00
7836;BME280;3963;42.658;23.298;2023-05-01T06:31:14;59745.13;;;12.62;100.00
7836;BME280;3963;42.658;23.298;2023-05-01T06:33:41;59741.53;;;12.64;100.00
7836;BME280;3963;42.658;23.298;2023-05-01T06:36:07;59778.50;;;12.82;100.00
7836;BME280;3963;42.658;23.298;2023-05-01T06:38:34;59786.41;;;12.84;100.00
7836;BME280;3963;42.658;23.298;2023-05-01T06:41:01;59792.84;;;12.90;100.00
7836;BME280;3963;42.658;23.298;2023-05-01T06:43:29;59807.19;;;13.13;100.00
7836;BME280;3963;42.658;23.298;2023-05-01T06:45:57;59812.09;;;13.20;100.00
7836;BME280;3963;42.658;23.298;2023-05-01T06:48:25;59817.56;;;13.28;100.00
7836;BME280;3963;42.658;23.298;2023-05-01T06:50:52;59827.25;;;13.22;100.00
7836;BME280;3963;42.658;23.298;2023-05-01T06:53:18;59847.13;;;13.26;100.00
7836;BME280;3963;42.658;23.298;2023-05-01T06:55:45;59820.47;;;13.38;100.00
7836;BME280;3963;42.658;23.298;2023-05-01T06:58:12;59855.06;;;13.61;100.00
7836;BME280;3963;42.658;23.298;2023-05-01T07:00:40;59877.75;;;13.70;100.00
7836;BME280;3963;42.658;23.298;2023-05-01T07:03:07;59922.81;;;13.78;100.00
7836;BME280;3963;42.658;23.298;2023-05-01T07:05:34;59914.44;;;13.77;100.00
7836;BME280;3963;42.658;23.298;2023-05-01T07:08:01;59943.34;;;14.00;100.00
7836;BME280;3963;42.658;23.298;2023-05-01T07:10:27;59966.72;;;14.29;100.00
7836;BME280;3963;42.658;23.298;2023-05-01T07:12:55;59996.16;;;14.52;100.00
7836;BME280;3963;42.658;23.298;2023-05-01T07:15:21;60049.94;;;14.85;100.00
7836;BME280;3963;42.658;23.298;2023-05-01T07:17:50;60103.22;;;15.32;100.00
7836;BME280;3963;42.658;23.298;2023-05-01T07:20:17;60158.94;;;15.89;100.00
7836;BME280;3963;42.658;23.298;2023-05-01T07:22:44;60257.78;;;16.38;100.00
7836;BME280;3963;42.658;23.298;2023-05-01T07:25:11;60311.13;;;16.68;100.00
7836;BME280;3963;42.658;23.298;2023-05-01T07:27:38;60341.38;;;16.96;100.00
7836;BME280;3963;42.658;23.298;2023-05-01T07:30:06;60438.13;;;17.69;100.00
7836;BME280;3963;42.658;23.298;2023-05-01T07:32:33;60452.19;;;17.97;100.00
7836;BME280;3963;42.658;23.298;2023-05-01T07:35:01;60506.19;;;18.13;100.00
7836;BME280;3963;42.658;23.298;2023-05-01T07:37:28;60499.50;;;18.17;100.00
7836;BME280;3963;42.658;23.298;2023-05-01T07:39:55;60596.00;;;18.77;100.00
7836;BME280;3963;42.658;23.298;2023-05-01T07:42:22;60586.28;;;18.86;100.00
7836;BME280;3963;42.658;23.298;2023-05-01T07:44:50;60653.97;;;19.14;100.00
7836;BME280;3963;42.658;23.298;2023-05-01T07:47:17;60730.16;;;19.61;78.96
7836;BME280;3963;42.658;23.298;2023-05-01T07:49:43;60696.25;;;19.68;77.32
7836;BME280;3963;42.658;23.298;2023-05-01T07:52:11;60726.13;;;19.81;71.92
7836;BME280;3963;42.658;23.298;2023-05-01T07:54:39;60827.72;;;20.29;69.24
7836;BME280;3963;42.658;23.298;2023-05-01T07:57:07;60835.94;;;20.54;68.61
7836;BME280;3963;42.658;23.298;2023-05-01T07:59:33;60845.28;;;20.51;67.82
7836;BME280;3963;42.658;23.298;2023-05-01T08:02:00;60908.81;;;21.07;65.78
7836;BME280;3963;42.658;23.298;2023-05-01T08:04:27;61047.06;;;21.72;63.46
7836;BME280;3963;42.658;23.298;2023-05-01T08:06:55;61114.31;;;22.24;61.18
7836;BME280;3963;42.658;23.298;2023-05-01T08:09:23;61093.75;;;22.25;57.93
7836;BME280;3963;42.658;23.298;2023-05-01T08:11:50;61042.94;;;21.90;59.56
7836;BME280;3963;42.658;23.298;2023-05-01T08:14:17;61131.13;;;22.37;58.26
7836;BME280;3963;42.658;23.298;2023-05-01T08:16:43;61164.03;;;22.87;56.46
7836;BME280;3963;42.658;23.298;2023-05-01T08:19:10;61240.69;;;23.19;54.62
7836;BME280;3963;42.658;23.298;2023-05-01T08:21:37;61282.88;;;23.46;52.55
7836;BME280;3963;42.658;23.298;2023-05-01T08:24:08;61260.81;;;23.35;51.76
7836;BME280;3963;42.658;23.298;2023-05-01T08:26:36;61230.38;;;23.12;53.12
7836;BME280;3963;42.658;23.298;2023-05-01T08:29:03;61148.97;;;22.49;54.61
7836;BME280;3963;42.658;23.298;2023-05-01T08:31:30;61208.28;;;22.99;54.45
7836;BME280;3963;42.658;23.298;2023-05-01T08:33:56;61309.88;;;23.46;51.45
7836;BME280;3963;42.658;23.298;2023-05-01T08:36:23;61316.00;;;23.86;50.86
7836;BME280;3963;42.658;23.298;2023-05-01T08:38:51;61365.56;;;23.81;49.46
7836;BME280;3963;42.658;23.298;2023-05-01T08:41:20;61381.63;;;23.86;46.93
7836;BME280;3963;42.658;23.298;2023-05-01T08:43:49;61364.00;;;23.82;45.57
7836;BME280;3963;42.658;23.298;2023-05-01T08:46:32;61321.16;;;23.66;44.40
7836;BME280;3963;42.658;23.298;2023-05-01T08:49:05;61368.72;;;23.96;44.68
7836;BME280;3963;42.658;23.298;2023-05-01T08:51:33;61458.97;;;24.47;43.96
7836;BME280;3963;42.658;23.298;2023-05-01T08:54:02;61491.47;;;24.82;40.49
7836;BME280;3963;42.658;23.298;2023-05-01T08:56:31;61511.47;;;24.93;39.59
7836;BME280;3963;42.658;23.298;2023-05-01T08:59:03;61480.81;;;24.50;41.10
7836;BME280;3963;42.658;23.298;2023-05-01T09:01:32;61414.16;;;24.23;41.38
7836;BME280;3963;42.658;23.298;2023-05-01T09:04:01;61402.09;;;24.27;41.64
7836;BME280;3963;42.658;23.298;2023-05-01T09:06:28;61452.69;;;24.49;41.03
7836;BME280;3963;42.658;23.298;2023-05-01T09:08:56;61531.31;;;24.99;39.60
7836;BME280;3963;42.658;23.298;2023-05-01T09:11:23;61541.09;;;25.06;38.73
7836;BME280;3963;42.658;23.298;2023-05-01T09:13:51;61547.91;;;25.19;38.75
7836;BME280;3963;42.658;23.298;2023-05-01T09:16:20;61538.47;;;25.23;39.91
7836;BME280;3963;42.658;23.298;2023-05-01T09:18:48;61528.38;;;24.92;40.02
7836;BME280;3963;42.658;23.298;2023-05-01T09:21:15;61538.06;;;24.96;38.53
7836;BME280;3963;42.658;23.298;2023-05-01T09:23:41;61552.94;;;25.12;38.97
7836;BME280;3963;42.658;23.298;2023-05-01T09:26:08;61552.75;;;25.21;38.97
7836;BME280;3963;42.658;23.298;2023-05-01T09:28:39;61481.78;;;24.78;39.42
7836;BME280;3963;42.658;23.298;2023-05-01T09:31:21;61575.31;;;25.30;40.12
7836;BME280;3963;42.658;23.298;2023-05-01T09:33:52;61662.47;;;25.93;38.66
7836;BME280;3963;42.658;23.298;2023-05-01T09:36:23;61652.78;;;25.89;35.94
7836;BME280;3963;42.658;23.298;2023-05-01T09:38:50;61463.69;;;24.61;38.65
7836;BME280;3963;42.658;23.298;2023-05-01T09:41:17;61556.59;;;25.25;38.88
7836;BME280;3963;42.658;23.298;2023-05-01T09:43:48;61489.72;;;24.78;38.15
7836;BME280;3963;42.658;23.298;2023-05-01T09:46:16;61597.00;;;25.43;37.40
7836;BME280;3963;42.658;23.298;2023-05-01T09:48:55;61473.13;;;24.58;37.19
7836;BME280;3963;42.658;23.298;2023-05-01T09:51:25;61503.63;;;24.81;37.04
7836;BME280;3963;42.658;23.298;2023-05-01T09:53:54;61593.72;;;25.25;35.33
7836;BME280;3963;42.658;23.298;2023-05-01T09:56:21;61501.41;;;24.79;37.58
7836;BME280;3963;42.658;23.298;2023-05-01T09:58:50;61485.97;;;24.92;38.67
7836;BME280;3963;42.658;23.298;2023-05-01T10:01:17;61521.34;;;24.88;40.05
7836;BME280;3963;42.658;23.298;2023-05-01T10:03:44;61487.84;;;24.54;40.64
7836;BME280;3963;42.658;23.298;2023-05-01T10:06:26;61441.81;;;24.41;40.95
7836;BME280;3963;42.658;23.298;2023-05-01T10:08:54;61383.84;;;24.05;41.66
7836;BME280;3963;42.658;23.298;2023-05-01T10:11:20;61188.09;;;22.80;43.48
7836;BME280;3963;42.658;23.298;2023-05-01T10:14:05;61262.84;;;23.18;42.00
7836;BME280;3963;42.658;23.298;2023-05-01T10:16:35;61357.81;;;23.86;42.14
7836;BME280;3963;42.658;23.298;2023-05-01T10:19:03;61330.25;;;23.70;43.65
7836;BME280;3963;42.658;23.298;2023-05-01T10:21:31;61389.25;;;23.93;42.64
7836;BME280;3963;42.658;23.298;2023-05-01T10:23:59;61372.38;;;23.94;41.73
7836;BME280;3963;42.658;23.298;2023-05-01T10:26:27;61368.56;;;23.91;42.59
7836;BME280;3963;42.658;23.298;2023-05-01T10:28:54;61362.00;;;23.85;43.38
7836;BME280;3963;42.658;23.298;2023-05-01T10:31:24;61404.88;;;24.14;40.07
7836;BME280;3963;42.658;23.298;2023-05-01T10:33:52;61362.28;;;23.63;41.64
7836;BME280;3963;42.658;23.298;2023-05-01T10:36:24;61336.19;;;23.73;42.15
7836;BME280;3963;42.658;23.298;2023-05-01T10:38:54;61201.50;;;22.71;43.16
7836;BME280;3963;42.658;23.298;2023-05-01T10:44:25;60950.72;;;21.14;49.21
7836;BME280;3963;42.658;23.298;2023-05-01T10:46:52;61032.53;;;21.63;48.65
7836;BME280;3963;42.658;23.298;2023-05-01T10:49:19;61071.59;;;21.94;46.44
7836;BME280;3963;42.658;23.298;2023-05-01T10:51:59;60975.59;;;21.32;46.69
7836;BME280;3963;42.658;23.298;2023-05-01T10:54:30;60974.13;;;21.21;45.92
7836;BME280;3963;42.658;23.298;2023-05-01T10:56:58;60917.13;;;20.88;47.96
7836;BME280;3963;42.658;23.298;2023-05-01T10:59:25;60927.75;;;20.90;48.32
7836;BME280;3963;42.658;23.298;2023-05-01T11:01:53;60895.66;;;20.61;48.87
7836;BME280;3963;42.658;23.298;2023-05-01T11:04:47;60814.13;;;20.17;49.40
7836;BME280;3963;42.658;23.298;2023-05-01T11:07:19;60818.31;;;20.01;49.26
7836;BME280;3963;42.658;23.298;2023-05-01T11:09:49;60831.97;;;20.31;49.65
7836;BME280;3963;42.658;23.298;2023-05-01T11:12:47;60828.53;;;20.37;50.53
7836;BME280;3963;42.658;23.298;2023-05-01T11:15:28;60853.13;;;20.33;51.51
7836;BME280;3963;42.658;23.298;2023-05-01T11:17:55;60860.66;;;20.38;53.25
7836;BME280;3963;42.658;23.298;2023-05-01T11:20:44;60858.53;;;20.53;53.28
7836;BME280;3963;42.658;23.298;2023-05-01T11:23:16;60892.22;;;20.38;53.38
7836;BME280;3963;42.658;23.298;2023-05-01T11:25:46;60791.03;;;19.88;54.48
7836;BME280;3963;42.658;23.298;2023-05-01T11:28:18;60736.22;;;19.69;55.23
7836;BME280;3963;42.658;23.298;2023-05-01T11:30:46;60747.38;;;19.57;56.58
7836;BME280;3963;42.658;23.298;2023-05-01T11:33:13;60767.44;;;19.59;56.33
7836;BME280;3963;42.658;23.298;2023-05-01T11:35:55;60760.63;;;19.45;58.67
7836;BME280;3963;42.658;23.298;2023-05-01T11:38:22;60696.41;;;19.42;59.70
7836;BME280;3963;42.658;23.298;2023-05-01T11:40:53;60707.63;;;19.32;57.86
7836;BME280;3963;42.658;23.298;2023-05-01T11:43:21;60733.53;;;19.37;57.71
7836;BME280;3963;42.658;23.298;2023-05-01T11:45:51;60670.22;;;19.29;56.88
7836;BME280;3963;42.658;23.298;2023-05-01T11:48:20;60680.91;;;19.34;56.41
7836;BME280;3963;42.658;23.298;2023-05-01T11:50:47;60736.97;;;19.60;56.90
7836;BME280;3963;42.658;23.298;2023-05-01T11:53:15;60833.78;;;20.37;54.07
7836;BME280;3963;42.658;23.298;2023-05-01T11:55:42;60855.78;;;20.65;52.40
7836;BME280;3963;42.658;23.298;2023-05-01T11:58:14;60795.19;;;20.02;53.45
7836;BME280;3963;42.658;23.298;2023-05-01T12:00:42;60794.13;;;19.71;54.70
7836;BME280;3963;42.658;23.298;2023-05-01T12:03:10;60729.38;;;19.38;56.45
7836;BME280;3963;42.658;23.298;2023-05-01T12:05:38;60622.47;;;19.00;57.05
7836;BME280;3963;42.658;23.298;2023-05-01T12:08:08;60660.59;;;18.94;57.55
7836;BME280;3963;42.658;23.298;2023-05-01T12:10:37;60612.19;;;18.90;57.28
7836;BME280;3963;42.658;23.298;2023-05-01T12:13:06;60635.56;;;18.68;57.79
7836;BME280;3963;42.658;23.298;2023-05-01T12:15:36;60611.66;;;18.75;57.20
7836;BME280;3963;42.658;23.298;2023-05-01T12:18:03;60634.78;;;18.92;57.03
7836;BME280;3963;42.658;23.298;2023-05-01T12:20:34;60678.16;;;19.00;55.13
7836;BME280;3963;42.658;23.298;2023-05-01T12:23:01;60651.63;;;19.07;54.68
7836;BME280;3963;42.658;23.298;2023-05-01T12:25:29;60638.69;;;18.98;55.55
7836;BME280;3963;42.658;23.298;2023-05-01T12:27:58;60582.91;;;18.48;57.26
7836;BME280;3963;42.658;23.298;2023-05-01T12:30:26;60548.84;;;18.19;58.86
7836;BME280;3963;42.658;23.298;2023-05-01T12:32:57;60511.22;;;18.23;59.38
7836;BME280;3963;42.658;23.298;2023-05-01T12:35:28;60576.56;;;18.47;57.44
7836;BME280;3963;42.658;23.298;2023-05-01T12:37:56;60597.66;;;18.64;58.09
7836;BME280;3963;42.658;23.298;2023-05-01T12:40:24;60630.47;;;18.73;57.33
7836;BME280;3963;42.658;23.298;2023-05-01T12:42:57;60616.19;;;18.84;55.52
7836;BME280;3963;42.658;23.298;2023-05-01T12:45:24;60668.09;;;19.13;55.35
7836;BME280;3963;42.658;23.298;2023-05-01T12:47:51;60659.03;;;19.09;54.47
7836;BME280;3963;42.658;23.298;2023-05-01T12:50:19;60689.34;;;19.35;54.69
7836;BME280;3963;42.658;23.298;2023-05-01T12:52:47;60694.13;;;19.37;53.88
7836;BME280;3963;42.658;23.298;2023-05-01T12:55:14;60670.00;;;19.54;53.96
7836;BME280;3963;42.658;23.298;2023-05-01T12:57:51;60691.78;;;19.30;49.20
7836;BME280;3963;42.658;23.298;2023-05-01T13:00:19;60635.34;;;18.92;49.77
7836;BME280;3963;42.658;23.298;2023-05-01T13:02:47;60642.22;;;18.94;51.79
7836;BME280;3963;42.658;23.298;2023-05-01T13:05:14;60664.53;;;19.31;51.15
7836;BME280;3963;42.658;23.298;2023-05-01T13:07:47;60690.69;;;19.44;49.75
7836;BME280;3963;42.658;23.298;2023-05-01T13:10:28;60724.53;;;19.65;50.30
7836;BME280;3963;42.658;23.298;2023-05-01T13:12:55;60752.63;;;19.72;49.35
7836;BME280;3963;42.658;23.298;2023-05-01T13:15:22;60748.72;;;19.66;50.05
7836;BME280;3963;42.658;23.298;2023-05-01T13:17:49;60656.47;;;19.41;51.33
7836;BME280;3963;42.658;23.298;2023-05-01T13:20:24;60736.91;;;19.43;52.29